Humidity-temperature Sensor

Selected Measurement Type: Air Temperature

 
Air Temperature [°C]     6 entries per hour
Showing data from 2/18/2023 (00:00:00 Z) to 2/17/2023 (00:01:00 Z)
Previous Next [ Day | 3-Days | 7-Days ]
First Last
Prev [ Day | 3-Days | 7-Days ] Next
First Last

Start Time:     :
End Time:     :     
Time (in GMT) :00 :50 :40 :30 :20 :10
Previous Next [ Day | 3-Days | 7-Days ]
First Last
Prev [ Day | 3-Days | 7-Days ] Next
First Last


123 => good data
MM => data is determined as missing
-- => data not received/configured
Back to Top Back to Top
2/18/2023 00:00 to 23:10 26.73 26.75 26.76 26.74 26.70 26.69
2/17/2023 23:00 to 22:10 26.70 26.76 26.61 26.62 26.71 26.77
2/17/2023 22:00 to 21:10 26.90 26.90 26.71 26.75 26.77 26.74
2/17/2023 21:00 to 20:10 26.73 26.82 26.70 26.68 26.63 26.69
2/17/2023 20:00 to 19:10 26.78 26.66 26.77 26.63 26.77 26.52
2/17/2023 19:00 to 18:10 26.72 26.71 26.68 26.59 26.57 26.70
2/17/2023 18:00 to 17:10 26.53 26.65 26.72 26.77 26.88 26.76
2/17/2023 17:00 to 16:10 26.70 26.69 26.79 26.85 26.67 26.75
2/17/2023 16:00 to 15:10 26.67 26.68 26.67 26.78 26.70 26.61
2/17/2023 15:00 to 14:10 26.73 26.66 26.57 26.56 26.62 26.49
2/17/2023 14:00 to 13:10 26.67 26.48 26.64 26.45 26.60 26.48
2/17/2023 13:00 to 12:10 26.54 26.51 26.47 26.46 26.48 26.40
2/17/2023 12:00 to 11:10 26.35 26.18 26.24 26.31 26.39 26.48
2/17/2023 11:00 to 10:10 26.38 26.37 26.49 26.41 26.47 26.30
2/17/2023 10:00 to 9:10 26.43 26.40 26.75 26.35 26.41 26.50
2/17/2023 09:00 to 8:10 26.58 26.47 26.57 26.57 26.49 26.51
2/17/2023 08:00 to 7:10 26.52 26.61 26.61 26.71 26.56 26.61
2/17/2023 07:00 to 6:10 26.54 26.68 26.71 26.56 26.58 26.64
2/17/2023 06:00 to 5:10 26.78 26.80 26.71 26.82 26.54 26.82
2/17/2023 05:00 to 4:10 26.77 26.78 26.81 26.78 26.92 26.82
2/17/2023 04:00 to 3:10 26.96 26.94 26.89 26.84 26.97 26.86
2/17/2023 03:00 to 2:10 26.87 26.86 26.89 26.92 26.86 27.00
2/17/2023 02:00 to 1:10 26.91 27.15 27.03 27.04 26.93 27.06
2/17/2023 01:00 to 0:10 26.98 27.03 27.01 26.94 26.86 26.92